Time;durP1;ratioP1;P1;durP2;ratioP2;P2;SDS_P1;SDS_P2;PMS_P1;PMS_P2;Temp;Humidity;BMP_temperature;BMP_pressure;BME280_temperature;BME280_humidity;BME280_pressure;Samples;Min_cycle;Max_cycle;Signal;HPM_P1;HPM_P2
2022/05/10 00:01:30;;;;;;;4.90;3.83;;;15.10;99.90;;;;;;5117567;28;20177;-61
2022/05/10 00:03:57;;;;;;;6.03;4.60;;;15.10;99.90;;;;;;5117598;28;20181;-61
2022/05/10 00:06:24;;;;;;;5.00;3.72;;;15.10;99.90;;;;;;5117732;28;20169;-61
2022/05/10 00:08:50;;;;;;;5.10;4.15;;;15.00;99.90;;;;;;5117460;28;20587;-60
2022/05/10 00:11:16;;;;;;;4.63;3.90;;;15.00;99.90;;;;;;5117515;28;20200;-61
2022/05/10 00:13:42;;;;;;;7.35;4.03;;;15.00;99.90;;;;;;5117294;28;20192;-61
2022/05/10 00:16:16;;;;;;;5.57;3.67;;;15.00;99.90;;;;;;5117303;28;20189;-61
2022/05/10 00:18:45;;;;;;;6.00;4.30;;;15.00;99.90;;;;;;5117417;28;20260;-61
2022/05/10 00:21:12;;;;;;;5.53;4.00;;;15.00;99.90;;;;;;5117274;28;20634;-61
2022/05/10 00:23:38;;;;;;;6.32;4.43;;;15.00;99.90;;;;;;5116082;28;20256;-61
2022/05/10 00:26:04;;;;;;;6.35;4.32;;;15.00;99.90;;;;;;5115948;28;20174;-61
2022/05/10 00:28:30;;;;;;;5.35;4.50;;;15.00;99.90;;;;;;5117050;28;20227;-61
2022/05/10 00:30:56;;;;;;;6.88;4.65;;;15.00;99.90;;;;;;5117068;28;20634;-61
2022/05/10 00:33:28;;;;;;;8.07;4.32;;;15.00;99.90;;;;;;5117367;28;20196;-61
2022/05/10 00:35:55;;;;;;;6.93;4.50;;;15.00;99.90;;;;;;5117000;28;20178;-61
2022/05/10 00:38:25;;;;;;;6.03;4.30;;;15.00;99.90;;;;;;5116947;28;20192;-61
2022/05/10 00:40:51;;;;;;;5.75;4.35;;;15.00;99.90;;;;;;5116788;28;20619;-61
2022/05/10 00:43:28;;;;;;;5.05;4.32;;;15.00;99.90;;;;;;5117045;28;20221;-61
2022/05/10 00:45:56;;;;;;;5.97;4.60;;;15.00;99.90;;;;;;5117274;28;20166;-61
2022/05/10 00:48:32;;;;;;;5.93;4.40;;;14.90;99.90;;;;;;5116841;28;20173;-61
2022/05/10 00:51:13;;;;;;;8.43;4.93;;;14.90;99.90;;;;;;5116611;28;20208;-61
2022/05/10 00:54:00;;;;;;;4.75;3.70;;;15.00;99.90;;;;;;5116878;28;20177;-61
2022/05/10 00:56:41;;;;;;;6.85;4.63;;;14.90;99.90;;;;;;5116709;28;20252;-61
2022/05/10 00:59:18;;;;;;;6.47;4.00;;;14.90;99.90;;;;;;5115283;28;20197;-61
2022/05/10 01:01:48;;;;;;;7.00;4.70;;;14.90;99.90;;;;;;5116646;28;20215;-61
2022/05/10 01:04:37;;;;;;;6.80;4.50;;;14.80;99.90;;;;;;5116307;28;20209;-60
2022/05/10 01:07:13;;;;;;;6.13;4.05;;;14.80;99.90;;;;;;5116570;28;20211;-61
2022/05/10 01:09:42;;;;;;;4.95;3.88;;;14.80;99.90;;;;;;5116370;28;20176;-61
2022/05/10 01:12:19;;;;;;;6.10;4.72;;;14.80;99.90;;;;;;5116132;28;20239;-61
2022/05/10 01:14:56;;;;;;;5.95;4.70;;;14.80;99.90;;;;;;5116480;28;20173;-61
2022/05/10 01:17:22;;;;;;;6.30;4.80;;;14.70;99.90;;;;;;5116235;28;20161;-61
2022/05/10 01:19:47;;;;;;;8.40;5.03;;;14.70;99.90;;;;;;5116185;28;20212;-61
2022/05/10 01:22:32;;;;;;;5.47;4.15;;;14.70;99.90;;;;;;5116046;28;20178;-60
2022/05/10 01:25:29;;;;;;;5.55;4.10;;;14.70;99.90;;;;;;5116269;28;20197;-61
2022/05/10 01:28:27;;;;;;;5.85;4.20;;;14.70;99.90;;;;;;5116124;28;20259;-61
2022/05/10 01:30:55;;;;;;;5.88;4.25;;;14.70;99.90;;;;;;5115869;28;20214;-61
2022/05/10 01:33:36;;;;;;;5.45;4.43;;;14.70;99.90;;;;;;5116052;28;20173;-60
2022/05/10 01:36:07;;;;;;;6.78;5.00;;;14.80;99.90;;;;;;5115852;28;20249;-61
2022/05/10 01:38:58;;;;;;;5.72;4.13;;;14.70;99.90;;;;;;5115834;28;20669;-61
2022/05/10 01:41:57;;;;;;;6.35;5.10;;;14.80;99.90;;;;;;5115996;28;20244;-61
2022/05/10 01:44:44;;;;;;;7.00;4.68;;;14.70;99.90;;;;;;5115907;28;20161;-61
2022/05/10 01:47:23;;;;;;;6.93;4.47;;;14.70;99.90;;;;;;5115559;28;20534;-61
2022/05/10 01:49:54;;;;;;;6.45;4.40;;;14.70;99.90;;;;;;5116040;28;20197;-61
2022/05/10 01:52:29;;;;;;;6.50;4.85;;;14.70;99.90;;;;;;5115777;28;20170;-61
2022/05/10 01:55:07;;;;;;;7.03;4.53;;;14.80;99.90;;;;;;5115625;28;20161;-61
2022/05/10 01:57:37;;;;;;;6.20;4.80;;;14.80;99.90;;;;;;5115292;28;20215;-61
2022/05/10 02:00:09;;;;;;;7.85;5.05;;;14.70;99.90;;;;;;5115276;28;20173;-61
2022/05/10 02:02:39;;;;;;;8.65;4.78;;;14.80;99.90;;;;;;5115124;28;20317;-61
2022/05/10 02:05:10;;;;;;;6.68;4.47;;;14.80;99.90;;;;;;5115066;28;20763;-60
2022/05/10 02:07:38;;;;;;;7.45;4.75;;;14.90;99.90;;;;;;5115315;28;20177;-61
2022/05/10 02:10:17;;;;;;;8.32;5.40;;;14.90;99.90;;;;;;5115165;28;20169;-61
2022/05/10 02:12:48;;;;;;;6.80;4.72;;;15.00;99.90;;;;;;5114870;28;20173;-61
2022/05/10 02:15:14;;;;;;;5.40;4.15;;;15.00;99.90;;;;;;5115260;28;20165;-61
2022/05/10 02:17:47;;;;;;;7.78;5.00;;;14.90;99.90;;;;;;5115119;28;20211;-61
2022/05/10 02:20:19;;;;;;;6.13;4.03;;;14.90;99.90;;;;;;5115005;28;20311;-60
2022/05/10 02:22:53;;;;;;;6.10;4.28;;;14.90;99.90;;;;;;5115258;28;20180;-61
2022/05/10 02:25:24;;;;;;;7.57;4.95;;;15.00;99.90;;;;;;5115200;28;20683;-61
2022/05/10 02:27:56;;;;;;;7.40;4.65;;;15.00;99.90;;;;;;5115024;28;20259;-61
2022/05/10 02:30:26;;;;;;;8.07;4.30;;;15.00;99.90;;;;;;5114893;28;20251;-61
2022/05/10 02:33:09;;;;;;;6.28;4.60;;;15.00;99.90;;;;;;5114759;28;20184;-61
2022/05/10 02:35:44;;;;;;;7.03;4.43;;;15.10;99.90;;;;;;5115066;28;20179;-61
2022/05/10 02:38:24;;;;;;;6.65;4.55;;;15.10;99.90;;;;;;5114763;28;20204;-61
2022/05/10 02:40:52;;;;;;;5.55;4.43;;;15.10;99.90;;;;;;5114930;28;20526;-61
2022/05/10 02:43:23;;;;;;;10.35;4.63;;;15.10;99.90;;;;;;5114553;28;20165;-61
2022/05/10 02:45:50;;;;;;;6.32;4.10;;;15.10;99.90;;;;;;5114702;28;20172;-60
2022/05/10 02:48:26;;;;;;;7.47;4.60;;;15.10;99.90;;;;;;5114660;28;20202;-60
2022/05/10 02:50:52;;;;;;;7.68;4.57;;;15.20;99.90;;;;;;5114562;28;20165;-61
2022/05/10 02:53:18;;;;;;;7.80;5.05;;;15.20;99.90;;;;;;5114410;28;20187;-61
2022/05/10 02:55:56;;;;;;;5.55;4.45;;;15.20;99.90;;;;;;5113141;28;20577;-61
2022/05/10 02:58:34;;;;;;;7.43;4.70;;;15.20;99.90;;;;;;5114033;28;20205;-61
2022/05/10 03:01:13;;;;;;;6.95;4.90;;;15.20;99.90;;;;;;5114391;28;20203;-61
2022/05/10 03:03:38;;;;;;;7.80;4.57;;;15.20;99.90;;;;;;5114546;28;20178;-60
2022/05/10 03:06:04;;;;;;;9.52;4.88;;;15.20;99.90;;;;;;5112886;28;20189;-61
2022/05/10 03:08:30;;;;;;;6.15;4.45;;;15.20;99.90;;;;;;5114097;28;20538;-61
2022/05/10 03:10:56;;;;;;;5.57;4.40;;;15.20;99.90;;;;;;5114062;28;20187;-61
2022/05/10 03:13:22;;;;;;;5.93;4.50;;;15.20;99.90;;;;;;5113043;28;20161;-61
2022/05/10 03:15:47;;;;;;;6.55;4.28;;;15.20;99.90;;;;;;5114107;28;20173;-61
2022/05/10 03:18:13;;;;;;;5.80;4.05;;;15.20;99.90;;;;;;5112733;28;20205;-61
2022/05/10 03:20:39;;;;;;;6.53;4.55;;;15.30;99.90;;;;;;5114220;28;20161;-61
2022/05/10 03:23:05;;;;;;;7.43;4.75;;;15.20;99.90;;;;;;5113880;28;20569;-61
2022/05/10 03:25:31;;;;;;;6.68;4.75;;;15.20;99.90;;;;;;5111613;28;20230;-60
2022/05/10 03:27:59;;;;;;;6.65;4.50;;;15.20;99.90;;;;;;5113798;28;20569;-61
2022/05/10 03:30:29;;;;;;;8.40;4.63;;;15.20;99.90;;;;;;5113956;28;20207;-61
2022/05/10 03:32:55;;;;;;;7.47;4.90;;;15.20;99.90;;;;;;5113880;28;20278;-61
2022/05/10 03:35:21;;;;;;;6.95;4.47;;;15.20;99.90;;;;;;5113609;28;20630;-61
2022/05/10 03:37:47;;;;;;;7.68;4.50;;;15.20;99.90;;;;;;5113817;28;20327;-61
2022/05/10 03:40:13;;;;;;;8.30;4.47;;;15.20;99.90;;;;;;5113847;28;20678;-60
2022/05/10 03:42:48;;;;;;;8.68;4.80;;;15.20;99.90;;;;;;5113919;28;20177;-61
2022/05/10 03:45:16;;;;;;;7.28;4.03;;;15.20;99.90;;;;;;5113718;28;20167;-60
2022/05/10 03:47:42;;;;;;;6.57;4.53;;;15.30;99.90;;;;;;5113569;28;20699;-61
2022/05/10 03:50:09;;;;;;;5.47;4.00;;;15.30;99.90;;;;;;5112296;28;20177;-61
2022/05/10 03:52:37;;;;;;;7.63;5.15;;;15.30;99.90;;;;;;5113362;28;20684;-61
2022/05/10 03:55:04;;;;;;;5.47;4.35;;;15.20;99.90;;;;;;5113497;28;20200;-61
2022/05/10 03:57:30;;;;;;;8.48;5.13;;;15.30;99.90;;;;;;5112550;28;20169;-61
2022/05/10 03:59:55;;;;;;;8.55;5.00;;;15.20;99.90;;;;;;5112382;28;20634;-61
2022/05/10 04:02:21;;;;;;;7.07;4.30;;;15.30;99.90;;;;;;5113483;28;20268;-61
2022/05/10 04:04:47;;;;;;;8.52;4.90;;;15.20;99.90;;;;;;5113591;28;20189;-61
2022/05/10 04:07:12;;;;;;;6.75;4.53;;;15.20;99.90;;;;;;5113511;28;20641;-61
2022/05/10 04:09:38;;;;;;;7.68;4.97;;;15.20;99.90;;;;;;5112491;28;20507;-61
2022/05/10 04:12:04;;;;;;;6.88;4.65;;;15.20;99.90;;;;;;5113579;28;20630;-60
2022/05/10 04:14:30;;;;;;;7.15;5.30;;;15.20;99.90;;;;;;5112141;28;20503;-61
2022/05/10 04:16:56;;;;;;;6.57;4.40;;;15.20;99.90;;;;;;5112028;28;20184;-61
2022/05/10 04:19:21;;;;;;;7.43;4.18;;;15.20;99.90;;;;;;5113235;28;20291;-61
2022/05/10 04:21:48;;;;;;;6.45;4.57;;;15.20;99.90;;;;;;5113136;28;20169;-60
2022/05/10 04:24:14;;;;;;;6.70;4.28;;;15.30;99.90;;;;;;5113302;28;20202;-61
2022/05/10 04:26:39;;;;;;;5.80;4.22;;;15.20;99.90;;;;;;5110373;28;20177;-61
2022/05/10 04:29:05;;;;;;;9.68;5.40;;;15.30;99.90;;;;;;5113193;28;20177;-61
2022/05/10 04:31:31;;;;;;;6.20;4.60;;;15.30;99.90;;;;;;5113295;28;20539;-61
2022/05/10 04:33:57;;;;;;;6.47;4.40;;;15.30;99.90;;;;;;5113270;28;20258;-60
2022/05/10 04:36:24;;;;;;;8.02;4.50;;;15.30;99.90;;;;;;5115130;28;20169;-60
2022/05/10 04:38:51;;;;;;;8.00;4.95;;;15.40;99.90;;;;;;5117100;28;20204;-60
2022/05/10 04:41:29;;;;;;;5.22;4.50;;;15.40;99.90;;;;;;5116916;28;20173;-61
2022/05/10 04:43:58;;;;;;;5.22;3.90;;;15.40;99.90;;;;;;5117028;28;20172;-61
2022/05/10 04:46:24;;;;;;;7.43;4.60;;;15.50;99.90;;;;;;5116836;28;20166;-60
2022/05/10 04:48:50;;;;;;;5.07;4.50;;;15.50;99.90;;;;;;5117121;28;20185;-61
2022/05/10 04:51:16;;;;;;;5.55;4.07;;;15.50;99.90;;;;;;5115690;28;20522;-61
2022/05/10 04:53:42;;;;;;;4.70;4.18;;;15.60;99.90;;;;;;5116797;28;20204;-61
2022/05/10 04:56:08;;;;;;;6.50;4.13;;;15.60;99.90;;;;;;5116852;28;20650;-61
2022/05/10 04:58:33;;;;;;;6.95;4.47;;;15.60;99.90;;;;;;5116619;28;20600;-61
2022/05/10 05:01:06;;;;;;;5.78;4.85;;;15.70;99.90;;;;;;5116520;28;20165;-58
2022/05/10 05:03:32;;;;;;;7.22;4.70;;;15.70;99.90;;;;;;5116498;28;20168;-61
2022/05/10 05:05:58;;;;;;;5.40;3.90;;;15.70;99.90;;;;;;5116027;28;20496;-61
2022/05/10 05:08:24;;;;;;;6.07;4.40;;;15.80;99.90;;;;;;5116102;28;20177;-60
2022/05/10 05:10:50;;;;;;;5.35;3.97;;;15.80;99.90;;;;;;5116428;28;20173;-60
2022/05/10 05:13:16;;;;;;;5.07;3.72;;;15.90;99.90;;;;;;5116253;28;20177;-61
2022/05/10 05:15:42;;;;;;;5.10;4.03;;;15.90;99.90;;;;;;5116147;28;20172;-61
2022/05/10 05:18:09;;;;;;;5.25;3.45;;;16.00;99.90;;;;;;5116314;28;20611;-60
2022/05/10 05:20:38;;;;;;;6.30;3.75;;;16.00;99.90;;;;;;5116299;28;20236;-61
2022/05/10 05:23:08;;;;;;;3.97;3.58;;;16.10;99.90;;;;;;5116125;28;20251;-61
2022/05/10 05:25:35;;;;;;;7.30;4.20;;;16.10;99.90;;;;;;5116135;28;20177;-61
2022/05/10 05:28:01;;;;;;;4.85;3.72;;;16.20;99.90;;;;;;5115925;28;20179;-61
2022/05/10 05:30:26;;;;;;;6.32;4.10;;;16.20;99.90;;;;;;5115768;28;20173;-60
2022/05/10 05:32:52;;;;;;;6.78;4.03;;;16.20;99.90;;;;;;5116090;28;20252;-61
2022/05/10 05:35:18;;;;;;;9.00;4.20;;;16.30;99.90;;;;;;5116133;28;20181;-61
2022/05/10 05:37:43;;;;;;;5.30;3.97;;;16.30;99.90;;;;;;5115365;28;20181;-61
2022/05/10 05:40:13;;;;;;;6.43;4.18;;;16.40;99.90;;;;;;5115493;28;20166;-62
2022/05/10 05:42:39;;;;;;;6.30;5.18;;;16.50;99.90;;;;;;5115758;28;20165;-62
2022/05/10 05:45:08;;;;;;;6.18;4.30;;;16.50;99.90;;;;;;5115662;28;20288;-62
2022/05/10 05:47:34;;;;;;;5.72;4.25;;;16.60;99.90;;;;;;5114909;28;20651;-62
2022/05/10 05:50:00;;;;;;;5.60;3.85;;;16.70;99.90;;;;;;5115831;28;20523;-62
2022/05/10 05:52:26;;;;;;;5.22;4.45;;;16.80;99.90;;;;;;5114299;28;20176;-61
2022/05/10 05:54:53;;;;;;;7.40;4.60;;;16.80;99.90;;;;;;5114331;28;20166;-61
2022/05/10 05:57:19;;;;;;;5.85;4.38;;;16.80;99.90;;;;;;5115516;28;20178;-61
2022/05/10 05:59:45;;;;;;;6.40;3.83;;;16.90;99.90;;;;;;5115485;28;20199;-62
2022/05/10 06:02:13;;;;;;;6.15;4.15;;;17.00;99.90;;;;;;5115520;28;20259;-61
2022/05/10 06:04:39;;;;;;;7.90;4.70;;;17.00;99.90;;;;;;5115418;28;20542;-61
2022/05/10 06:07:05;;;;;;;6.20;4.68;;;17.10;99.90;;;;;;5115545;28;20173;-61
2022/05/10 06:09:31;;;;;;;4.63;3.72;;;17.20;99.90;;;;;;5115209;28;20180;-61
2022/05/10 06:11:57;;;;;;;6.22;4.13;;;17.20;99.90;;;;;;5115088;28;20541;-61
2022/05/10 06:14:22;;;;;;;4.32;3.72;;;17.30;99.90;;;;;;5115081;28;20176;-62
2022/05/10 06:16:48;;;;;;;5.32;4.00;;;17.30;99.90;;;;;;5115393;28;20184;-62
2022/05/10 06:19:14;;;;;;;5.80;4.45;;;17.40;99.90;;;;;;5115045;28;20209;-61
2022/05/10 06:21:43;;;;;;;4.32;3.50;;;17.40;99.90;;;;;;5115056;28;20177;-61
2022/05/10 06:24:10;;;;;;;5.88;4.45;;;17.40;99.90;;;;;;5114830;28;20169;-61
2022/05/10 06:26:36;;;;;;;5.90;4.28;;;17.50;99.90;;;;;;5114802;28;20650;-62
2022/05/10 06:29:02;;;;;;;4.65;3.90;;;17.60;99.90;;;;;;5114947;28;20181;-61
2022/05/10 06:31:28;;;;;;;5.65;4.00;;;17.80;99.90;;;;;;5114903;28;20176;-61
2022/05/10 06:33:54;;;;;;;6.47;3.50;;;17.90;99.90;;;;;;5115280;28;20178;-61
2022/05/10 06:36:20;;;;;;;4.38;3.60;;;17.90;99.90;;;;;;5114721;28;20627;-62
2022/05/10 06:38:46;;;;;;;5.50;3.58;;;18.00;99.90;;;;;;5114734;28;20217;-62
2022/05/10 06:41:11;;;;;;;6.57;4.25;;;18.00;99.90;;;;;;5114497;28;20259;-62
2022/05/10 06:43:38;;;;;;;3.90;3.50;;;18.10;99.90;;;;;;5114723;28;20199;-62
2022/05/10 06:46:14;;;;;;;5.45;3.95;;;18.20;99.90;;;;;;5114598;28;20177;-62
2022/05/10 06:48:40;;;;;;;4.95;4.15;;;18.30;99.90;;;;;;5114661;28;20208;-62
2022/05/10 06:51:07;;;;;;;4.40;3.75;;;18.30;99.90;;;;;;5114392;28;20538;-62
2022/05/10 06:53:34;;;;;;;4.45;3.95;;;18.40;99.90;;;;;;5114206;28;20177;-62
2022/05/10 06:56:00;;;;;;;5.15;3.65;;;18.50;99.90;;;;;;5114243;28;20691;-62
2022/05/10 06:58:26;;;;;;;4.72;3.63;;;18.50;99.90;;;;;;5114193;28;20205;-62
2022/05/10 07:00:52;;;;;;;4.70;3.83;;;18.50;99.90;;;;;;5114172;28;20306;-61
2022/05/10 07:03:28;;;;;;;5.57;3.97;;;18.50;99.90;;;;;;5114224;28;20218;-62
2022/05/10 07:05:54;;;;;;;5.82;4.10;;;18.60;99.90;;;;;;5114164;28;20214;-61
2022/05/10 07:08:20;;;;;;;4.72;4.07;;;18.60;99.90;;;;;;5095818;28;20262;-61
2022/05/10 07:10:46;;;;;;;4.55;3.50;;;18.70;99.90;;;;;;5114240;28;20649;-61
2022/05/10 07:13:21;;;;;;;5.50;3.90;;;18.70;99.90;;;;;;5112857;28;20312;-61
2022/05/10 07:15:47;;;;;;;5.00;3.70;;;18.80;99.90;;;;;;5114015;28;20250;-62
2022/05/10 07:18:13;;;;;;;4.38;3.60;;;18.70;99.90;;;;;;5113983;28;20197;-61
2022/05/10 07:20:40;;;;;;;4.40;3.70;;;18.70;99.90;;;;;;5113806;28;20174;-61
2022/05/10 07:23:07;;;;;;;4.43;3.67;;;18.70;99.90;;;;;;5113660;28;20184;-61
2022/05/10 07:25:33;;;;;;;4.30;3.35;;;18.70;99.90;;;;;;5113898;28;20170;-61
2022/05/10 07:27:59;;;;;;;5.25;4.15;;;18.80;99.90;;;;;;5113137;28;20183;-61
2022/05/10 07:30:27;;;;;;;4.95;4.13;;;18.80;99.90;;;;;;5113560;28;20199;-61
2022/05/10 07:32:53;;;;;;;4.63;3.40;;;18.80;99.90;;;;;;5113793;28;20191;-61
2022/05/10 07:36:23;;;;;;;4.60;3.40;;;18.90;99.90;;;;;;5113582;28;20199;-61
2022/05/10 07:38:07;;;;;;;5.15;4.18;;;19.00;99.90;;;;;;5113302;28;20236;-61
2022/05/10 07:40:33;;;;;;;3.97;3.35;;;19.10;99.90;;;;;;5113763;28;20170;-61
2022/05/10 07:42:58;;;;;;;4.57;3.47;;;19.20;99.90;;;;;;5113679;28;20185;-62
2022/05/10 07:45:24;;;;;;;5.22;3.83;;;19.30;99.90;;;;;;5113610;28;20678;-61
2022/05/10 07:47:50;;;;;;;5.35;3.45;;;19.30;99.90;;;;;;5112245;28;20188;-61
2022/05/10 07:50:16;;;;;;;4.55;3.70;;;19.40;99.90;;;;;;5113739;28;20176;-62
2022/05/10 07:52:42;;;;;;;5.55;3.90;;;19.30;99.90;;;;;;5113480;28;20180;-61
2022/05/10 07:55:09;;;;;;;4.95;3.63;;;19.40;99.90;;;;;;5113629;28;20169;-62
2022/05/10 07:57:35;;;;;;;3.72;3.35;;;19.50;99.90;;;;;;5113495;28;20177;-62
2022/05/10 08:00:01;;;;;;;4.93;3.55;;;19.70;99.90;;;;;;5113520;28;20654;-62
2022/05/10 08:02:26;;;;;;;6.05;3.58;;;19.90;99.90;;;;;;5113403;28;20173;-62
2022/05/10 08:04:52;;;;;;;4.18;3.58;;;20.10;99.90;;;;;;5113589;28;20185;-62
2022/05/10 08:07:17;;;;;;;3.72;3.10;;;20.00;99.90;;;;;;5113569;28;20185;-62
2022/05/10 08:09:43;;;;;;;3.78;2.90;;;20.00;99.90;;;;;;5113676;28;20202;-62
2022/05/10 08:12:09;;;;;;;3.50;2.90;;;19.90;99.90;;;;;;5116290;28;20636;-62
2022/05/10 08:14:34;;;;;;;4.38;3.45;;;19.90;99.90;;;;;;5117493;28;20650;-62
2022/05/10 08:17:00;;;;;;;6.55;3.40;;;20.00;99.90;;;;;;5117324;28;20177;-62
2022/05/10 08:19:26;;;;;;;4.75;3.25;;;20.00;99.90;;;;;;5117467;28;20201;-62
2022/05/10 08:21:55;;;;;;;3.28;2.80;;;20.00;99.90;;;;;;5117560;28;20173;-61
2022/05/10 08:24:22;;;;;;;3.88;3.15;;;20.10;99.90;;;;;;5117321;28;20252;-62
2022/05/10 08:26:48;;;;;;;3.05;2.75;;;20.40;99.90;;;;;;5117264;28;20261;-62
2022/05/10 08:29:13;;;;;;;3.88;2.95;;;20.60;99.90;;;;;;5116080;28;20204;-62
2022/05/10 08:31:40;;;;;;;3.40;3.10;;;20.70;99.90;;;;;;5117166;28;20251;-62
2022/05/10 08:34:06;;;;;;;3.38;3.08;;;20.70;99.90;;;;;;5115902;28;20701;-61
2022/05/10 08:36:33;;;;;;;4.20;3.30;;;20.60;99.90;;;;;;5117170;28;20253;-61
2022/05/10 08:38:58;;;;;;;3.55;3.08;;;20.70;99.90;;;;;;5117044;28;20237;-62
2022/05/10 08:41:29;;;;;;;3.63;3.10;;;21.00;99.90;;;;;;5115710;28;20197;-62
2022/05/10 08:44:00;;;;;;;3.08;2.80;;;21.30;99.90;;;;;;5116960;28;20166;-62
2022/05/10 08:46:43;;;;;;;3.40;2.78;;;21.50;99.90;;;;;;5116801;28;20244;-62
2022/05/10 08:49:35;;;;;;;4.72;3.13;;;21.70;99.90;;;;;;5116974;28;20201;-62
2022/05/10 08:52:01;;;;;;;3.78;3.05;;;21.80;99.90;;;;;;5116889;28;20172;-62
2022/05/10 08:54:29;;;;;;;3.17;2.83;;;21.90;99.90;;;;;;5115465;28;20531;-62
2022/05/10 08:56:59;;;;;;;3.80;3.17;;;22.00;99.90;;;;;;5116796;28;20180;-62
2022/05/10 08:59:52;;;;;;;4.40;3.30;;;22.00;99.90;;;;;;5117014;28;20276;-62
2022/05/10 09:02:50;;;;;;;3.92;3.30;;;22.00;99.90;;;;;;5105353;28;20184;-62
2022/05/10 09:05:28;;;;;;;3.42;3.13;;;22.10;99.90;;;;;;5112262;28;20303;-62
2022/05/10 09:08:02;;;;;;;3.90;2.75;;;22.20;99.90;;;;;;5116696;28;20444;-62
2022/05/10 09:10:56;;;;;;;3.78;3.13;;;22.10;99.90;;;;;;5116551;28;20246;-62
2022/05/10 09:13:23;;;;;;;3.45;2.80;;;22.20;99.90;;;;;;5116309;28;20173;-62
2022/05/10 09:16:05;;;;;;;2.88;2.65;;;22.40;99.90;;;;;;5116540;28;20212;-62
2022/05/10 09:18:46;;;;;;;3.33;3.03;;;22.50;99.90;;;;;;5116512;28;20205;-62
2022/05/10 09:21:42;;;;;;;4.22;3.25;;;22.40;99.90;;;;;;5116251;28;20169;-61
2022/05/10 09:24:48;;;;;;;3.22;2.92;;;22.40;99.90;;;;;;5115094;28;20169;-62
2022/05/10 09:27:14;;;;;;;3.13;2.65;;;22.40;99.90;;;;;;5106815;28;20267;-62
2022/05/10 09:29:49;;;;;;;3.60;2.85;;;22.60;99.90;;;;;;5116062;28;20587;-62
2022/05/10 09:35:14;;;;;;;5.07;3.10;;;22.60;99.90;;;;;;5116091;28;20548;-62
2022/05/10 09:37:45;;;;;;;4.82;3.05;;;22.90;99.90;;;;;;5115921;28;20174;-62
2022/05/10 09:40:48;;;;;;;3.17;2.40;;;23.30;99.90;;;;;;5116000;28;20207;-63
2022/05/10 09:43:23;;;;;;;3.40;3.05;;;23.60;99.90;;;;;;5116087;28;20169;-62
2022/05/10 09:46:18;;;;;;;4.20;2.80;;;23.70;99.90;;;;;;5115772;28;20173;-62
2022/05/10 09:48:44;;;;;;;2.72;2.38;;;23.90;99.90;;;;;;5115702;28;20184;-62
2022/05/10 09:51:28;;;;;;;2.53;2.33;;;24.10;99.90;;;;;;5115547;28;20173;-62
2022/05/10 09:53:54;;;;;;;3.72;2.75;;;24.40;99.90;;;;;;5115765;28;20523;-63
2022/05/10 09:56:29;;;;;;;2.70;2.50;;;24.60;99.90;;;;;;5115519;28;20177;-63
2022/05/10 09:59:00;;;;;;;3.83;2.78;;;24.60;98.70;;;;;;5115475;28;20562;-63
2022/05/10 10:01:41;;;;;;;2.65;2.42;;;24.50;99.90;;;;;;5115641;28;20189;-62
2022/05/10 10:04:35;;;;;;;2.95;2.50;;;24.50;99.90;;;;;;5115229;28;20637;-62
2022/05/10 10:07:22;;;;;;;2.47;2.28;;;24.20;99.90;;;;;;5115418;28;20252;-61
2022/05/10 10:09:56;;;;;;;3.97;2.50;;;24.20;99.90;;;;;;5114341;28;20185;-63
2022/05/10 10:12:40;;;;;;;2.53;2.33;;;24.00;99.90;;;;;;5115420;28;20168;-62
2022/05/10 10:15:36;;;;;;;3.83;2.38;;;23.70;99.90;;;;;;5115179;28;20169;-62
2022/05/10 10:18:08;;;;;;;3.20;2.40;;;23.70;99.90;;;;;;5113524;28;20256;-62
2022/05/10 10:20:49;;;;;;;2.80;2.30;;;23.70;99.90;;;;;;5115139;28;20169;-62
2022/05/10 10:23:29;;;;;;;2.90;2.50;;;23.70;99.90;;;;;;5115137;28;20222;-62
2022/05/10 10:26:05;;;;;;;2.67;2.30;;;23.70;99.90;;;;;;5113775;28;20534;-62
2022/05/10 10:28:39;;;;;;;2.83;2.33;;;23.90;99.90;;;;;;5114952;28;20177;-62
2022/05/10 10:31:22;;;;;;;2.35;2.15;;;24.10;99.90;;;;;;5115316;28;20172;-62
2022/05/10 10:33:54;;;;;;;2.55;2.35;;;24.20;99.10;;;;;;5114373;28;20177;-64
2022/05/10 10:36:47;;;;;;;3.10;2.58;;;24.10;98.80;;;;;;5114707;28;20650;-62
2022/05/10 10:39:43;;;;;;;2.55;2.08;;;24.10;99.50;;;;;;5114766;28;20208;-62
2022/05/10 10:42:18;;;;;;;2.25;1.98;;;24.40;99.90;;;;;;5114812;28;20235;-62
2022/05/10 10:44:51;;;;;;;2.17;1.98;;;24.70;99.40;;;;;;5114692;28;20168;-63
2022/05/10 10:47:36;;;;;;;2.40;2.00;;;25.10;99.10;;;;;;5114846;28;20189;-62
2022/05/10 10:50:29;;;;;;;2.78;2.50;;;25.30;99.10;;;;;;5114696;28;20273;-62
2022/05/10 10:52:57;;;;;;;2.38;1.88;;;25.10;98.20;;;;;;5111966;28;20414;-62
2022/05/10 10:55:44;;;;;;;3.22;2.30;;;25.10;97.30;;;;;;5114280;28;20169;-63
2022/05/10 10:58:46;;;;;;;3.20;1.98;;;24.70;98.40;;;;;;5114507;28;20209;-62
2022/05/10 11:01:37;;;;;;;4.07;2.75;;;24.90;98.10;;;;;;5114328;28;20251;-62
2022/05/10 11:04:12;;;;;;;2.25;2.05;;;25.20;99.00;;;;;;5114268;28;20238;-63
2022/05/10 11:06:58;;;;;;;2.03;1.83;;;25.30;97.40;;;;;;5114256;28;20180;-62
2022/05/10 11:09:52;;;;;;;2.90;2.20;;;25.20;96.30;;;;;;5113863;28;20193;-63
2022/05/10 11:12:18;;;;;;;3.53;2.30;;;25.00;96.50;;;;;;5114066;28;20165;-62
2022/05/10 11:15:08;;;;;;;2.65;2.35;;;25.00;98.20;;;;;;5114068;28;20166;-62
2022/05/10 11:18:04;;;;;;;2.60;2.40;;;25.20;98.50;;;;;;5114101;28;20192;-62
2022/05/10 11:20:48;;;;;;;2.65;2.42;;;25.30;97.90;;;;;;5113605;28;20219;-62
2022/05/10 11:23:46;;;;;;;2.30;2.10;;;25.20;97.60;;;;;;5114219;28;20172;-62
2022/05/10 11:26:47;;;;;;;2.50;2.25;;;25.10;97.70;;;;;;5112909;28;20169;-62
2022/05/10 11:29:21;;;;;;;4.10;2.30;;;25.20;97.60;;;;;;5113511;28;20180;-63
2022/05/10 11:31:53;;;;;;;2.83;2.50;;;25.00;97.40;;;;;;5114098;28;20625;-63
2022/05/10 11:34:53;;;;;;;2.70;2.08;;;25.10;98.30;;;;;;5113781;28;20174;-63
2022/05/10 11:37:28;;;;;;;3.60;2.08;;;25.20;99.10;;;;;;5108986;28;20276;-63
2022/05/10 11:39:53;;;;;;;2.25;1.83;;;25.20;97.70;;;;;;5113788;28;20211;-63
2022/05/10 11:42:40;;;;;;;2.33;1.83;;;25.10;96.70;;;;;;5113759;28;20173;-63
2022/05/10 11:45:33;;;;;;;1.63;1.50;;;25.10;97.50;;;;;;5113204;28;20634;-63
2022/05/10 11:48:33;;;;;;;2.05;1.63;;;24.90;97.30;;;;;;5113650;28;20294;-61
2022/05/10 11:53:59;;;;;;;2.28;1.63;;;24.90;97.00;;;;;;5113795;28;20176;-63
2022/05/10 11:56:33;;;;;;;1.95;1.60;;;24.90;96.50;;;;;;5113615;28;20226;-62
2022/05/10 11:59:05;;;;;;;2.22;1.50;;;24.90;95.60;;;;;;5113537;28;20224;-62
2022/05/10 12:01:51;;;;;;;2.38;1.45;;;24.90;94.50;;;;;;5113524;28;20173;-62
2022/05/10 12:04:45;;;;;;;2.75;1.67;;;25.00;93.20;;;;;;5113271;28;20184;-62
2022/05/10 12:07:20;;;;;;;2.42;1.80;;;24.90;95.00;;;;;;5113794;28;20534;-62
2022/05/10 12:09:52;;;;;;;1.73;1.42;;;24.70;94.70;;;;;;5113352;28;20183;-62
2022/05/10 12:12:32;;;;;;;1.60;1.50;;;24.50;95.10;;;;;;5113331;28;20178;-62
2022/05/10 12:21:20;;;;;;;1.92;1.40;;;24.50;93.40;;;;;;5100789;28;20173;-62
2022/05/10 12:24:07;;;;;;;1.40;1.10;;;24.50;93.90;;;;;;5113442;28;20630;-63
2022/05/10 12:26:48;;;;;;;2.95;1.75;;;24.50;94.40;;;;;;5113243;28;20583;-61
2022/05/10 12:29:35;;;;;;;1.65;1.50;;;24.50;94.30;;;;;;5113120;28;20194;-62
2022/05/10 12:32:30;;;;;;;2.08;1.63;;;24.80;93.10;;;;;;5113454;28;20254;-63
2022/05/10 12:34:56;;;;;;;1.40;1.25;;;24.90;93.90;;;;;;5112954;28;20271;-62
2022/05/10 12:37:28;;;;;;;1.50;1.40;;;24.90;93.50;;;;;;5113057;28;20174;-63
2022/05/10 12:40:02;;;;;;;1.80;1.50;;;24.70;93.20;;;;;;5113232;28;20212;-62
2022/05/10 12:42:38;;;;;;;1.75;1.55;;;24.70;94.90;;;;;;5113263;28;20246;-62
2022/05/10 12:45:32;;;;;;;1.30;1.15;;;24.90;95.40;;;;;;5113123;28;20173;-62
2022/05/10 12:48:01;;;;;;;2.65;1.95;;;25.10;94.90;;;;;;5113013;28;20169;-63
2022/05/10 12:50:59;;;;;;;1.55;1.45;;;25.00;93.00;;;;;;5112907;28;20535;-63
2022/05/10 12:54:04;;;;;;;2.60;1.23;;;25.20;93.00;;;;;;5113087;28;20161;-62
2022/05/10 12:56:35;;;;;;;1.95;1.10;;;25.10;93.40;;;;;;5113297;28;20504;-62
2022/05/10 12:59:09;;;;;;;1.30;1.15;;;24.80;91.90;;;;;;5116636;28;20207;-62
2022/05/10 13:01:37;;;;;;;1.40;1.30;;;24.70;91.40;;;;;;5116868;28;20322;-63
2022/05/10 13:04:15;;;;;;;1.60;1.40;;;24.60;88.60;;;;;;5116350;28;20193;-63
2022/05/10 13:07:02;;;;;;;1.85;1.20;;;24.50;90.80;;;;;;5116479;28;20169;-63
2022/05/10 13:09:37;;;;;;;1.50;1.30;;;24.50;91.20;;;;;;5116709;28;20177;-63
2022/05/10 13:12:23;;;;;;;1.73;1.30;;;24.60;90.70;;;;;;5116631;28;20183;-63
2022/05/10 13:14:52;;;;;;;1.40;1.30;;;24.50;91.60;;;;;;5115989;28;20276;-63
2022/05/10 13:17:31;;;;;;;1.92;1.17;;;24.50;90.40;;;;;;5116374;28;20172;-63
2022/05/10 13:19:58;;;;;;;1.15;1.10;;;24.30;91.00;;;;;;5116349;28;20235;-62
2022/05/10 13:22:26;;;;;;;1.20;1.10;;;24.10;87.70;;;;;;5116361;28;20241;-62
2022/05/10 13:24:58;;;;;;;1.40;1.30;;;24.00;91.00;;;;;;5116324;28;20162;-62
2022/05/10 13:27:30;;;;;;;1.40;1.27;;;23.90;90.30;;;;;;5116140;28;20251;-62
2022/05/10 13:30:04;;;;;;;1.40;1.30;;;23.80;90.70;;;;;;5116254;28;20176;-63